sensor_id;sensor_type;location;lat;lon;timestamp;temperature;humidity
41939;DHT22;23057;48.554;14.454;2023-06-01T00:00:57;10.50;99.90
41939;DHT22;23057;48.554;14.454;2023-06-01T00:03:29;10.50;99.90
41939;DHT22;23057;48.554;14.454;2023-06-01T00:06:00;10.50;99.90
41939;DHT22;23057;48.554;14.454;2023-06-01T00:08:31;10.50;99.90
41939;DHT22;23057;48.554;14.454;2023-06-01T00:11:02;10.40;99.90
41939;DHT22;23057;48.554;14.454;2023-06-01T00:13:33;10.40;99.90
41939;DHT22;23057;48.554;14.454;2023-06-01T00:16:04;10.30;99.90
41939;DHT22;23057;48.554;14.454;2023-06-01T00:18:35;10.30;99.90
41939;DHT22;23057;48.554;14.454;2023-06-01T00:21:06;10.30;99.90
41939;DHT22;23057;48.554;14.454;2023-06-01T00:23:37;10.40;99.90
41939;DHT22;23057;48.554;14.454;2023-06-01T00:26:11;10.40;99.90
41939;DHT22;23057;48.554;14.454;2023-06-01T00:28:42;10.40;99.90
41939;DHT22;23057;48.554;14.454;2023-06-01T00:31:12;10.30;99.90
41939;DHT22;23057;48.554;14.454;2023-06-01T00:33:43;10.20;99.90
41939;DHT22;23057;48.554;14.454;2023-06-01T00:36:14;10.20;99.90
41939;DHT22;23057;48.554;14.454;2023-06-01T00:38:45;10.20;99.90
41939;DHT22;23057;48.554;14.454;2023-06-01T00:41:16;10.20;99.90
41939;DHT22;23057;48.554;14.454;2023-06-01T00:43:46;10.20;99.90
41939;DHT22;23057;48.554;14.454;2023-06-01T00:46:17;10.20;99.90
41939;DHT22;23057;48.554;14.454;2023-06-01T00:48:48;10.10;99.90
41939;DHT22;23057;48.554;14.454;2023-06-01T00:51:21;10.10;99.90
41939;DHT22;23057;48.554;14.454;2023-06-01T00:53:52;10.00;99.90
41939;DHT22;23057;48.554;14.454;2023-06-01T00:56:23;10.00;99.90
41939;DHT22;23057;48.554;14.454;2023-06-01T00:58:54;10.00;99.90
41939;DHT22;23057;48.554;14.454;2023-06-01T01:01:25;10.00;99.90
41939;DHT22;23057;48.554;14.454;2023-06-01T01:03:56;9.90;99.90
41939;DHT22;23057;48.554;14.454;2023-06-01T01:06:34;9.90;99.90
41939;DHT22;23057;48.554;14.454;2023-06-01T01:12:31;9.70;99.90
41939;DHT22;23057;48.554;14.454;2023-06-01T01:15:25;9.60;99.90
41939;DHT22;23057;48.554;14.454;2023-06-01T01:18:03;9.60;99.90
41939;DHT22;23057;48.554;14.454;2023-06-01T01:20:55;9.60;99.90
41939;DHT22;23057;48.554;14.454;2023-06-01T01:29:23;9.50;99.90
41939;DHT22;23057;48.554;14.454;2023-06-01T01:31:56;9.50;99.90
41939;DHT22;23057;48.554;14.454;2023-06-01T01:34:31;9.40;99.90
41939;DHT22;23057;48.554;14.454;2023-06-01T01:37:02;9.50;99.90
41939;DHT22;23057;48.554;14.454;2023-06-01T01:39:34;9.50;99.90
41939;DHT22;23057;48.554;14.454;2023-06-01T01:42:05;9.50;99.90
41939;DHT22;23057;48.554;14.454;2023-06-01T01:44:36;9.60;99.90
41939;DHT22;23057;48.554;14.454;2023-06-01T01:47:10;9.60;99.90
41939;DHT22;23057;48.554;14.454;2023-06-01T01:49:56;9.50;99.90
41939;DHT22;23057;48.554;14.454;2023-06-01T01:52:34;9.50;99.90
41939;DHT22;23057;48.554;14.454;2023-06-01T01:55:09;9.40;99.90
41939;DHT22;23057;48.554;14.454;2023-06-01T01:57:42;9.40;99.90
41939;DHT22;23057;48.554;14.454;2023-06-01T02:00:14;9.40;99.90
41939;DHT22;23057;48.554;14.454;2023-06-01T02:02:46;9.40;99.90
41939;DHT22;23057;48.554;14.454;2023-06-01T02:05:17;9.30;99.90
41939;DHT22;23057;48.554;14.454;2023-06-01T02:07:47;9.30;99.90
41939;DHT22;23057;48.554;14.454;2023-06-01T02:10:18;9.30;99.90
41939;DHT22;23057;48.554;14.454;2023-06-01T02:12:49;9.30;99.90
41939;DHT22;23057;48.554;14.454;2023-06-01T02:15:20;9.30;99.90
41939;DHT22;23057;48.554;14.454;2023-06-01T02:17:51;9.30;99.90
41939;DHT22;23057;48.554;14.454;2023-06-01T02:20:21;9.30;99.90
41939;DHT22;23057;48.554;14.454;2023-06-01T02:22:52;9.20;99.90
41939;DHT22;23057;48.554;14.454;2023-06-01T02:25:23;9.20;99.90
41939;DHT22;23057;48.554;14.454;2023-06-01T02:27:53;9.20;99.90
41939;DHT22;23057;48.554;14.454;2023-06-01T02:30:24;9.20;99.90
41939;DHT22;23057;48.554;14.454;2023-06-01T02:32:55;9.30;99.90
41939;DHT22;23057;48.554;14.454;2023-06-01T02:35:26;9.20;99.90
41939;DHT22;23057;48.554;14.454;2023-06-01T02:37:56;9.20;99.90
41939;DHT22;23057;48.554;14.454;2023-06-01T02:40:27;9.20;99.90
41939;DHT22;23057;48.554;14.454;2023-06-01T02:42:58;9.10;99.90
41939;DHT22;23057;48.554;14.454;2023-06-01T02:45:28;9.10;99.90
41939;DHT22;23057;48.554;14.454;2023-06-01T02:47:59;9.10;99.90
41939;DHT22;23057;48.554;14.454;2023-06-01T02:50:30;9.10;99.90
41939;DHT22;23057;48.554;14.454;2023-06-01T02:53:01;9.10;99.90
41939;DHT22;23057;48.554;14.454;2023-06-01T02:55:32;9.00;99.90
41939;DHT22;23057;48.554;14.454;2023-06-01T02:58:02;9.00;99.90
41939;DHT22;23057;48.554;14.454;2023-06-01T03:00:33;8.90;99.90
41939;DHT22;23057;48.554;14.454;2023-06-01T03:03:04;8.90;99.90
41939;DHT22;23057;48.554;14.454;2023-06-01T03:05:35;8.80;99.90
41939;DHT22;23057;48.554;14.454;2023-06-01T03:08:05;8.80;99.90
41939;DHT22;23057;48.554;14.454;2023-06-01T03:10:36;8.80;99.90
41939;DHT22;23057;48.554;14.454;2023-06-01T03:13:07;8.80;99.90
41939;DHT22;23057;48.554;14.454;2023-06-01T03:15:38;8.80;99.90
41939;DHT22;23057;48.554;14.454;2023-06-01T03:18:08;8.80;99.90
41939;DHT22;23057;48.554;14.454;2023-06-01T03:20:39;8.80;99.90
41939;DHT22;23057;48.554;14.454;2023-06-01T03:23:10;8.90;99.90
41939;DHT22;23057;48.554;14.454;2023-06-01T03:25:41;9.30;99.90
41939;DHT22;23057;48.554;14.454;2023-06-01T03:28:12;9.80;99.90
41939;DHT22;23057;48.554;14.454;2023-06-01T03:30:43;10.50;99.90
41939;DHT22;23057;48.554;14.454;2023-06-01T03:33:15;11.00;99.90
41939;DHT22;23057;48.554;14.454;2023-06-01T03:35:46;11.20;1.00
41939;DHT22;23057;48.554;14.454;2023-06-01T03:38:17;11.30;99.90
41939;DHT22;23057;48.554;14.454;2023-06-01T03:40:47;11.40;99.90
41939;DHT22;23057;48.554;14.454;2023-06-01T03:43:18;11.70;99.90
41939;DHT22;23057;48.554;14.454;2023-06-01T03:45:49;11.90;1.00
41939;DHT22;23057;48.554;14.454;2023-06-01T03:48:20;11.80;1.00
41939;DHT22;23057;48.554;14.454;2023-06-01T03:50:51;12.30;1.00
41939;DHT22;23057;48.554;14.454;2023-06-01T03:53:22;12.60;99.90
41939;DHT22;23057;48.554;14.454;2023-06-01T03:55:52;13.00;99.90
41939;DHT22;23057;48.554;14.454;2023-06-01T03:58:25;13.10;99.90
41939;DHT22;23057;48.554;14.454;2023-06-01T04:00:55;13.10;90.60
41939;DHT22;23057;48.554;14.454;2023-06-01T04:03:27;12.90;93.80
41939;DHT22;23057;48.554;14.454;2023-06-01T04:05:58;12.90;99.90
41939;DHT22;23057;48.554;14.454;2023-06-01T04:08:32;13.20;93.60
41939;DHT22;23057;48.554;14.454;2023-06-01T04:11:03;13.30;58.70
41939;DHT22;23057;48.554;14.454;2023-06-01T04:13:34;13.00;67.60
41939;DHT22;23057;48.554;14.454;2023-06-01T04:16:05;13.20;83.40
41939;DHT22;23057;48.554;14.454;2023-06-01T04:18:36;13.60;83.00
41939;DHT22;23057;48.554;14.454;2023-06-01T04:21:07;13.90;36.30
41939;DHT22;23057;48.554;14.454;2023-06-01T04:23:39;14.30;1.00
41939;DHT22;23057;48.554;14.454;2023-06-01T04:26:12;14.40;1.00
41939;DHT22;23057;48.554;14.454;2023-06-01T04:28:43;14.50;1.00
41939;DHT22;23057;48.554;14.454;2023-06-01T04:31:14;14.50;1.00
41939;DHT22;23057;48.554;14.454;2023-06-01T04:33:47;14.90;1.00
41939;DHT22;23057;48.554;14.454;2023-06-01T04:36:23;15.00;1.00
41939;DHT22;23057;48.554;14.454;2023-06-01T04:38:54;15.00;1.00
41939;DHT22;23057;48.554;14.454;2023-06-01T04:41:25;15.50;1.00
41939;DHT22;23057;48.554;14.454;2023-06-01T04:43:56;16.30;1.00
41939;DHT22;23057;48.554;14.454;2023-06-01T04:46:29;16.00;1.00
41939;DHT22;23057;48.554;14.454;2023-06-01T04:49:01;16.00;1.00
41939;DHT22;23057;48.554;14.454;2023-06-01T04:51:32;15.90;1.00
41939;DHT22;23057;48.554;14.454;2023-06-01T04:54:07;16.50;1.00
41939;DHT22;23057;48.554;14.454;2023-06-01T04:56:38;16.60;1.00
41939;DHT22;23057;48.554;14.454;2023-06-01T04:59:08;16.50;1.00
41939;DHT22;23057;48.554;14.454;2023-06-01T05:01:39;16.70;1.00
41939;DHT22;23057;48.554;14.454;2023-06-01T05:04:10;16.60;1.00
41939;DHT22;23057;48.554;14.454;2023-06-01T05:06:41;17.50;1.00
41939;DHT22;23057;48.554;14.454;2023-06-01T05:09:12;17.90;1.00
41939;DHT22;23057;48.554;14.454;2023-06-01T05:11:43;18.70;99.90
41939;DHT22;23057;48.554;14.454;2023-06-01T05:14:14;19.20;99.90
41939;DHT22;23057;48.554;14.454;2023-06-01T05:16:45;20.40;99.90
41939;DHT22;23057;48.554;14.454;2023-06-01T05:19:16;21.30;99.90
41939;DHT22;23057;48.554;14.454;2023-06-01T05:21:47;21.70;99.90
41939;DHT22;23057;48.554;14.454;2023-06-01T05:24:18;21.50;99.90
41939;DHT22;23057;48.554;14.454;2023-06-01T05:26:49;21.00;99.90
41939;DHT22;23057;48.554;14.454;2023-06-01T05:29:20;21.00;99.90
41939;DHT22;23057;48.554;14.454;2023-06-01T05:31:51;20.70;99.90
41939;DHT22;23057;48.554;14.454;2023-06-01T05:34:22;20.00;99.90
41939;DHT22;23057;48.554;14.454;2023-06-01T05:36:53;20.20;99.90
41939;DHT22;23057;48.554;14.454;2023-06-01T05:39:23;19.60;99.90
41939;DHT22;23057;48.554;14.454;2023-06-01T05:41:58;20.00;99.90
41939;DHT22;23057;48.554;14.454;2023-06-01T05:44:30;20.30;99.90
41939;DHT22;23057;48.554;14.454;2023-06-01T05:47:02;19.60;99.90
41939;DHT22;23057;48.554;14.454;2023-06-01T05:49:33;19.40;99.90
41939;DHT22;23057;48.554;14.454;2023-06-01T05:52:06;20.40;99.90
41939;DHT22;23057;48.554;14.454;2023-06-01T05:54:36;20.80;99.90
41939;DHT22;23057;48.554;14.454;2023-06-01T05:57:07;21.00;99.90
41939;DHT22;23057;48.554;14.454;2023-06-01T05:59:38;22.20;99.90
41939;DHT22;23057;48.554;14.454;2023-06-01T06:02:09;22.10;99.90
41939;DHT22;23057;48.554;14.454;2023-06-01T06:04:40;23.00;99.90
41939;DHT22;23057;48.554;14.454;2023-06-01T06:07:11;22.80;99.90
41939;DHT22;23057;48.554;14.454;2023-06-01T06:09:42;22.70;99.90
41939;DHT22;23057;48.554;14.454;2023-06-01T06:12:12;22.90;99.90
41939;DHT22;23057;48.554;14.454;2023-06-01T06:14:43;22.40;99.90
41939;DHT22;23057;48.554;14.454;2023-06-01T06:17:14;23.10;99.90
41939;DHT22;23057;48.554;14.454;2023-06-01T06:19:45;22.80;99.90
41939;DHT22;23057;48.554;14.454;2023-06-01T06:22:17;22.10;99.90
41939;DHT22;23057;48.554;14.454;2023-06-01T06:24:49;23.10;99.90
41939;DHT22;23057;48.554;14.454;2023-06-01T06:27:20;24.10;99.90
41939;DHT22;23057;48.554;14.454;2023-06-01T06:29:51;23.40;99.90
41939;DHT22;23057;48.554;14.454;2023-06-01T06:32:21;23.70;99.90
41939;DHT22;23057;48.554;14.454;2023-06-01T06:34:52;23.80;99.90
41939;DHT22;23057;48.554;14.454;2023-06-01T06:37:23;23.80;99.90
41939;DHT22;23057;48.554;14.454;2023-06-01T06:39:53;23.90;99.90
41939;DHT22;23057;48.554;14.454;2023-06-01T06:42:24;24.00;99.90
41939;DHT22;23057;48.554;14.454;2023-06-01T06:44:55;23.40;99.90
41939;DHT22;23057;48.554;14.454;2023-06-01T06:47:27;24.00;99.90
41939;DHT22;23057;48.554;14.454;2023-06-01T06:49:58;23.20;99.90
41939;DHT22;23057;48.554;14.454;2023-06-01T06:52:29;23.90;99.90
41939;DHT22;23057;48.554;14.454;2023-06-01T06:55:00;23.10;99.90
41939;DHT22;23057;48.554;14.454;2023-06-01T06:57:31;22.30;99.90
41939;DHT22;23057;48.554;14.454;2023-06-01T07:00:05;22.50;99.90
41939;DHT22;23057;48.554;14.454;2023-06-01T07:02:38;22.50;99.90
41939;DHT22;23057;48.554;14.454;2023-06-01T07:05:12;22.30;99.90
41939;DHT22;23057;48.554;14.454;2023-06-01T07:07:43;21.80;99.90
41939;DHT22;23057;48.554;14.454;2023-06-01T07:10:13;22.00;99.90
41939;DHT22;23057;48.554;14.454;2023-06-01T07:12:44;22.40;99.90
41939;DHT22;23057;48.554;14.454;2023-06-01T07:15:15;22.70;99.90
41939;DHT22;23057;48.554;14.454;2023-06-01T07:17:46;22.90;99.90
41939;DHT22;23057;48.554;14.454;2023-06-01T07:20:17;23.20;99.90
41939;DHT22;23057;48.554;14.454;2023-06-01T07:22:48;22.80;99.90
41939;DHT22;23057;48.554;14.454;2023-06-01T07:25:20;22.90;99.90
41939;DHT22;23057;48.554;14.454;2023-06-01T07:27:51;23.20;99.90
41939;DHT22;23057;48.554;14.454;2023-06-01T07:30:22;23.50;99.90
41939;DHT22;23057;48.554;14.454;2023-06-01T07:32:53;23.90;99.90
41939;DHT22;23057;48.554;14.454;2023-06-01T07:35:24;23.80;99.90
41939;DHT22;23057;48.554;14.454;2023-06-01T07:37:55;23.70;99.90
41939;DHT22;23057;48.554;14.454;2023-06-01T07:40:25;23.50;99.90
41939;DHT22;23057;48.554;14.454;2023-06-01T07:42:56;23.90;99.90
41939;DHT22;23057;48.554;14.454;2023-06-01T07:45:27;24.30;99.90
41939;DHT22;23057;48.554;14.454;2023-06-01T07:47:58;24.50;99.90
41939;DHT22;23057;48.554;14.454;2023-06-01T07:50:29;24.70;99.90
41939;DHT22;23057;48.554;14.454;2023-06-01T07:53:01;24.60;99.90
41939;DHT22;23057;48.554;14.454;2023-06-01T07:55:33;24.40;99.90
41939;DHT22;23057;48.554;14.454;2023-06-01T07:58:03;24.90;99.90
41939;DHT22;23057;48.554;14.454;2023-06-01T08:00:36;25.00;99.90
41939;DHT22;23057;48.554;14.454;2023-06-01T08:03:07;25.10;99.90
41939;DHT22;23057;48.554;14.454;2023-06-01T08:05:39;24.90;99.90
41939;DHT22;23057;48.554;14.454;2023-06-01T08:08:12;25.40;99.90
41939;DHT22;23057;48.554;14.454;2023-06-01T08:10:45;24.70;99.90
41939;DHT22;23057;48.554;14.454;2023-06-01T08:13:15;24.50;99.90
41939;DHT22;23057;48.554;14.454;2023-06-01T08:15:46;24.80;99.90
41939;DHT22;23057;48.554;14.454;2023-06-01T08:18:20;24.70;99.90
41939;DHT22;23057;48.554;14.454;2023-06-01T08:20:52;24.70;99.90
41939;DHT22;23057;48.554;14.454;2023-06-01T08:23:23;24.90;99.90
41939;DHT22;23057;48.554;14.454;2023-06-01T08:25:53;24.80;99.90
41939;DHT22;23057;48.554;14.454;2023-06-01T08:28:24;24.80;99.90
41939;DHT22;23057;48.554;14.454;2023-06-01T08:30:55;25.00;99.90
41939;DHT22;23057;48.554;14.454;2023-06-01T08:33:26;25.30;99.90
41939;DHT22;23057;48.554;14.454;2023-06-01T08:35:57;24.90;99.90
41939;DHT22;23057;48.554;14.454;2023-06-01T08:38:27;25.00;99.90
41939;DHT22;23057;48.554;14.454;2023-06-01T08:41:03;25.00;99.90
41939;DHT22;23057;48.554;14.454;2023-06-01T08:44:18;25.40;99.90
41939;DHT22;23057;48.554;14.454;2023-06-01T08:46:57;24.80;99.90
41939;DHT22;23057;48.554;14.454;2023-06-01T08:49:29;24.90;99.90
41939;DHT22;23057;48.554;14.454;2023-06-01T08:52:06;24.00;99.90
41939;DHT22;23057;48.554;14.454;2023-06-01T08:54:42;24.20;99.90
41939;DHT22;23057;48.554;14.454;2023-06-01T08:57:12;25.10;99.90
41939;DHT22;23057;48.554;14.454;2023-06-01T08:59:45;24.70;99.90
41939;DHT22;23057;48.554;14.454;2023-06-01T09:02:16;24.00;99.90
41939;DHT22;23057;48.554;14.454;2023-06-01T09:04:46;23.10;99.90
41939;DHT22;23057;48.554;14.454;2023-06-01T09:07:17;23.50;99.90
41939;DHT22;23057;48.554;14.454;2023-06-01T09:09:48;23.60;99.90
41939;DHT22;23057;48.554;14.454;2023-06-01T09:15:12;25.20;99.90
41939;DHT22;23057;48.554;14.454;2023-06-01T09:17:49;26.30;99.90
41939;DHT22;23057;48.554;14.454;2023-06-01T09:20:28;26.60;99.90
41939;DHT22;23057;48.554;14.454;2023-06-01T09:23:02;26.20;99.90
41939;DHT22;23057;48.554;14.454;2023-06-01T09:25:33;25.30;99.90
41939;DHT22;23057;48.554;14.454;2023-06-01T09:28:05;24.50;99.90
41939;DHT22;23057;48.554;14.454;2023-06-01T09:30:37;23.60;99.90
41939;DHT22;23057;48.554;14.454;2023-06-01T09:33:14;24.70;99.90
41939;DHT22;23057;48.554;14.454;2023-06-01T09:35:50;25.50;99.90
41939;DHT22;23057;48.554;14.454;2023-06-01T09:38:21;26.30;99.90
41939;DHT22;23057;48.554;14.454;2023-06-01T09:40:55;26.70;99.90
41939;DHT22;23057;48.554;14.454;2023-06-01T09:43:33;25.40;99.90
41939;DHT22;23057;48.554;14.454;2023-06-01T09:46:08;24.70;99.90
41939;DHT22;23057;48.554;14.454;2023-06-01T09:48:43;25.40;99.90
41939;DHT22;23057;48.554;14.454;2023-06-01T09:53:59;24.40;99.90
41939;DHT22;23057;48.554;14.454;2023-06-01T09:56:43;24.10;99.90
41939;DHT22;23057;48.554;14.454;2023-06-01T09:59:17;24.30;99.90
41939;DHT22;23057;48.554;14.454;2023-06-01T10:01:49;24.40;99.90
41939;DHT22;23057;48.554;14.454;2023-06-01T10:04:27;24.60;99.90
41939;DHT22;23057;48.554;14.454;2023-06-01T10:06:59;25.70;99.90
41939;DHT22;23057;48.554;14.454;2023-06-01T10:09:30;25.80;99.90
41939;DHT22;23057;48.554;14.454;2023-06-01T10:12:02;25.50;99.90
41939;DHT22;23057;48.554;14.454;2023-06-01T10:14:33;24.60;99.90
41939;DHT22;23057;48.554;14.454;2023-06-01T10:17:08;24.70;99.90
41939;DHT22;23057;48.554;14.454;2023-06-01T10:19:42;24.90;99.90
41939;DHT22;23057;48.554;14.454;2023-06-01T10:22:13;25.80;99.90
41939;DHT22;23057;48.554;14.454;2023-06-01T10:24:44;25.80;99.90
41939;DHT22;23057;48.554;14.454;2023-06-01T10:27:23;25.20;99.90
41939;DHT22;23057;48.554;14.454;2023-06-01T10:30:07;26.30;99.90
41939;DHT22;23057;48.554;14.454;2023-06-01T10:32:48;26.70;99.90
41939;DHT22;23057;48.554;14.454;2023-06-01T10:40:47;25.00;99.90
41939;DHT22;23057;48.554;14.454;2023-06-01T10:46:33;25.80;99.90
41939;DHT22;23057;48.554;14.454;2023-06-01T10:49:04;25.80;99.90
41939;DHT22;23057;48.554;14.454;2023-06-01T10:51:35;26.40;99.90
41939;DHT22;23057;48.554;14.454;2023-06-01T10:54:26;26.40;99.90
41939;DHT22;23057;48.554;14.454;2023-06-01T10:57:18;26.00;99.90
41939;DHT22;23057;48.554;14.454;2023-06-01T11:02:57;26.60;99.90
41939;DHT22;23057;48.554;14.454;2023-06-01T11:05:43;26.40;99.90
41939;DHT22;23057;48.554;14.454;2023-06-01T11:10:55;25.50;99.90
41939;DHT22;23057;48.554;14.454;2023-06-01T11:13:33;26.10;99.90
41939;DHT22;23057;48.554;14.454;2023-06-01T11:19:03;27.20;99.90
41939;DHT22;23057;48.554;14.454;2023-06-01T11:21:40;26.90;99.90
41939;DHT22;23057;48.554;14.454;2023-06-01T11:24:18;26.50;99.90
41939;DHT22;23057;48.554;14.454;2023-06-01T11:26:49;26.60;99.90
41939;DHT22;23057;48.554;14.454;2023-06-01T11:29:22;26.60;99.90
41939;DHT22;23057;48.554;14.454;2023-06-01T11:31:56;27.20;99.90
41939;DHT22;23057;48.554;14.454;2023-06-01T11:34:33;27.20;99.90
41939;DHT22;23057;48.554;14.454;2023-06-01T11:37:15;27.20;99.90
41939;DHT22;23057;48.554;14.454;2023-06-01T11:39:48;27.10;99.90
41939;DHT22;23057;48.554;14.454;2023-06-01T11:42:20;27.20;99.90
41939;DHT22;23057;48.554;14.454;2023-06-01T11:44:58;26.70;99.90
41939;DHT22;23057;48.554;14.454;2023-06-01T11:47:29;26.40;99.90
41939;DHT22;23057;48.554;14.454;2023-06-01T11:50:01;26.80;99.90
41939;DHT22;23057;48.554;14.454;2023-06-01T11:52:31;26.80;99.90
41939;DHT22;23057;48.554;14.454;2023-06-01T11:55:02;27.00;99.90
41939;DHT22;23057;48.554;14.454;2023-06-01T11:57:34;27.50;99.90
41939;DHT22;23057;48.554;14.454;2023-06-01T12:00:05;27.60;99.90
41939;DHT22;23057;48.554;14.454;2023-06-01T12:02:43;27.20;99.90
41939;DHT22;23057;48.554;14.454;2023-06-01T12:05:14;26.00;99.90
41939;DHT22;23057;48.554;14.454;2023-06-01T12:07:48;25.30;99.90
41939;DHT22;23057;48.554;14.454;2023-06-01T12:10:24;24.90;99.90
41939;DHT22;23057;48.554;14.454;2023-06-01T12:12:55;24.80;99.90
41939;DHT22;23057;48.554;14.454;2023-06-01T12:15:26;25.20;99.90
41939;DHT22;23057;48.554;14.454;2023-06-01T12:17:57;25.20;99.90
41939;DHT22;23057;48.554;14.454;2023-06-01T12:20:34;26.10;99.90
41939;DHT22;23057;48.554;14.454;2023-06-01T12:23:15;26.30;99.90
41939;DHT22;23057;48.554;14.454;2023-06-01T12:25:50;26.50;99.90
41939;DHT22;23057;48.554;14.454;2023-06-01T12:28:46;27.20;99.90
41939;DHT22;23057;48.554;14.454;2023-06-01T12:31:23;27.00;99.90
41939;DHT22;23057;48.554;14.454;2023-06-01T12:33:54;26.60;99.90
41939;DHT22;23057;48.554;14.454;2023-06-01T12:36:32;26.90;99.90
41939;DHT22;23057;48.554;14.454;2023-06-01T12:39:04;27.50;99.90
41939;DHT22;23057;48.554;14.454;2023-06-01T12:41:35;27.40;99.90
41939;DHT22;23057;48.554;14.454;2023-06-01T12:44:06;27.40;99.90
41939;DHT22;23057;48.554;14.454;2023-06-01T12:46:37;27.60;99.90
41939;DHT22;23057;48.554;14.454;2023-06-01T12:51:50;27.40;99.90
41939;DHT22;23057;48.554;14.454;2023-06-01T12:54:20;27.10;99.90
41939;DHT22;23057;48.554;14.454;2023-06-01T12:56:51;26.90;99.90
41939;DHT22;23057;48.554;14.454;2023-06-01T12:59:22;26.70;99.90
41939;DHT22;23057;48.554;14.454;2023-06-01T13:01:53;26.50;99.90
41939;DHT22;23057;48.554;14.454;2023-06-01T13:04:24;26.60;99.90
41939;DHT22;23057;48.554;14.454;2023-06-01T13:06:55;26.70;99.90
41939;DHT22;23057;48.554;14.454;2023-06-01T13:09:26;26.30;99.90
41939;DHT22;23057;48.554;14.454;2023-06-01T13:11:56;25.90;99.90
41939;DHT22;23057;48.554;14.454;2023-06-01T13:14:27;26.30;99.90
41939;DHT22;23057;48.554;14.454;2023-06-01T13:16:58;26.50;99.90
41939;DHT22;23057;48.554;14.454;2023-06-01T13:19:29;26.60;99.90
41939;DHT22;23057;48.554;14.454;2023-06-01T13:21:59;26.80;99.90
41939;DHT22;23057;48.554;14.454;2023-06-01T13:24:30;27.00;99.90
41939;DHT22;23057;48.554;14.454;2023-06-01T13:27:01;27.30;99.90
41939;DHT22;23057;48.554;14.454;2023-06-01T13:29:35;27.10;99.90
41939;DHT22;23057;48.554;14.454;2023-06-01T13:32:06;27.50;99.90
41939;DHT22;23057;48.554;14.454;2023-06-01T13:34:37;27.40;99.90
41939;DHT22;23057;48.554;14.454;2023-06-01T13:37:09;27.30;99.90
41939;DHT22;23057;48.554;14.454;2023-06-01T13:39:40;27.10;99.90
41939;DHT22;23057;48.554;14.454;2023-06-01T13:42:11;26.70;99.90
41939;DHT22;23057;48.554;14.454;2023-06-01T13:44:41;26.70;99.90
41939;DHT22;23057;48.554;14.454;2023-06-01T13:47:15;25.60;99.90
41939;DHT22;23057;48.554;14.454;2023-06-01T13:49:46;25.50;99.90
41939;DHT22;23057;48.554;14.454;2023-06-01T13:52:17;25.50;99.90
41939;DHT22;23057;48.554;14.454;2023-06-01T13:54:48;25.30;99.90
41939;DHT22;23057;48.554;14.454;2023-06-01T13:57:19;25.20;99.90
41939;DHT22;23057;48.554;14.454;2023-06-01T13:59:50;25.00;99.90
41939;DHT22;23057;48.554;14.454;2023-06-01T14:02:20;25.00;99.90
41939;DHT22;23057;48.554;14.454;2023-06-01T14:04:51;24.80;99.90
41939;DHT22;23057;48.554;14.454;2023-06-01T14:07:22;25.00;99.90
41939;DHT22;23057;48.554;14.454;2023-06-01T14:09:53;24.80;99.90
41939;DHT22;23057;48.554;14.454;2023-06-01T14:12:24;24.60;99.90
41939;DHT22;23057;48.554;14.454;2023-06-01T14:14:55;24.30;99.90
41939;DHT22;23057;48.554;14.454;2023-06-01T14:17:25;24.20;99.90
41939;DHT22;23057;48.554;14.454;2023-06-01T14:19:56;24.30;99.90
41939;DHT22;23057;48.554;14.454;2023-06-01T14:22:27;24.00;99.90
41939;DHT22;23057;48.554;14.454;2023-06-01T14:24:58;23.70;99.90
41939;DHT22;23057;48.554;14.454;2023-06-01T14:27:28;23.90;99.90
41939;DHT22;23057;48.554;14.454;2023-06-01T14:29:59;23.70;99.90
41939;DHT22;23057;48.554;14.454;2023-06-01T14:32:33;23.60;99.90
41939;DHT22;23057;48.554;14.454;2023-06-01T14:35:04;23.70;99.90
41939;DHT22;23057;48.554;14.454;2023-06-01T14:37:36;24.00;99.90
41939;DHT22;23057;48.554;14.454;2023-06-01T14:40:07;23.50;99.90
41939;DHT22;23057;48.554;14.454;2023-06-01T14:42:38;23.40;99.90
41939;DHT22;23057;48.554;14.454;2023-06-01T14:45:10;23.20;99.90
41939;DHT22;23057;48.554;14.454;2023-06-01T14:47:44;23.00;99.90
41939;DHT22;23057;48.554;14.454;2023-06-01T14:50:15;22.70;99.90
41939;DHT22;23057;48.554;14.454;2023-06-01T14:52:45;22.70;99.90
41939;DHT22;23057;48.554;14.454;2023-06-01T14:55:16;22.60;99.90
41939;DHT22;23057;48.554;14.454;2023-06-01T14:57:49;22.70;99.90
41939;DHT22;23057;48.554;14.454;2023-06-01T15:00:19;22.60;99.90
41939;DHT22;23057;48.554;14.454;2023-06-01T15:02:51;22.60;99.90
41939;DHT22;23057;48.554;14.454;2023-06-01T15:05:21;22.60;99.90
41939;DHT22;23057;48.554;14.454;2023-06-01T15:07:52;22.80;99.90
41939;DHT22;23057;48.554;14.454;2023-06-01T15:10:23;22.80;99.90
41939;DHT22;23057;48.554;14.454;2023-06-01T15:12:54;22.90;99.90
41939;DHT22;23057;48.554;14.454;2023-06-01T15:15:25;23.00;99.90
41939;DHT22;23057;48.554;14.454;2023-06-01T15:17:57;23.20;99.90
41939;DHT22;23057;48.554;14.454;2023-06-01T15:20:28;23.40;99.90
41939;DHT22;23057;48.554;14.454;2023-06-01T15:23:00;23.30;99.90
41939;DHT22;23057;48.554;14.454;2023-06-01T15:25:31;23.20;99.90
41939;DHT22;23057;48.554;14.454;2023-06-01T15:28:02;23.20;99.90
41939;DHT22;23057;48.554;14.454;2023-06-01T15:30:33;23.50;99.90
41939;DHT22;23057;48.554;14.454;2023-06-01T15:33:05;23.40;99.90
41939;DHT22;23057;48.554;14.454;2023-06-01T15:35:36;23.10;99.90
41939;DHT22;23057;48.554;14.454;2023-06-01T15:38:06;23.00;99.90
41939;DHT22;23057;48.554;14.454;2023-06-01T15:40:37;23.00;99.90
41939;DHT22;23057;48.554;14.454;2023-06-01T15:43:08;23.10;99.90
41939;DHT22;23057;48.554;14.454;2023-06-01T15:45:39;22.90;99.90
41939;DHT22;23057;48.554;14.454;2023-06-01T15:48:10;22.90;99.90
41939;DHT22;23057;48.554;14.454;2023-06-01T15:50:41;22.70;99.90
41939;DHT22;23057;48.554;14.454;2023-06-01T15:53:12;22.60;99.90
41939;DHT22;23057;48.554;14.454;2023-06-01T15:55:42;22.40;99.90
41939;DHT22;23057;48.554;14.454;2023-06-01T15:58:13;22.30;99.90
41939;DHT22;23057;48.554;14.454;2023-06-01T16:00:44;22.30;99.90
41939;DHT22;23057;48.554;14.454;2023-06-01T16:03:15;22.20;99.90
41939;DHT22;23057;48.554;14.454;2023-06-01T16:05:46;22.20;99.90
41939;DHT22;23057;48.554;14.454;2023-06-01T16:08:17;22.10;99.90
41939;DHT22;23057;48.554;14.454;2023-06-01T16:10:47;22.10;99.90
41939;DHT22;23057;48.554;14.454;2023-06-01T16:13:19;22.00;99.90
41939;DHT22;23057;48.554;14.454;2023-06-01T16:15:49;22.10;99.90
41939;DHT22;23057;48.554;14.454;2023-06-01T16:18:20;22.00;99.90
41939;DHT22;23057;48.554;14.454;2023-06-01T16:20:51;21.80;99.90
41939;DHT22;23057;48.554;14.454;2023-06-01T16:23:22;21.80;99.90
41939;DHT22;23057;48.554;14.454;2023-06-01T16:25:52;21.70;99.90